Time;durP1;ratioP1;P1;durP2;ratioP2;P2;SDS_P1;SDS_P2;PMS_P1;PMS_P2;Temp;Humidity;BMP_temperature;BMP_pressure;BME280_temperature;BME280_humidity;BME280_pressure;Samples;Min_cycle;Max_cycle;Signal;HPM_P1;HPM_P2
2022/03/04 00:01:58;;;;;;;29.88;17.23;;;1.90;99.90;;;;;;5003354;28;20115;-83
2022/03/04 00:04:24;;;;;;;28.45;16.25;;;1.90;99.90;;;;;;4999045;28;20033;-83
2022/03/04 00:06:50;;;;;;;27.00;16.88;;;1.80;99.90;;;;;;5000235;28;20045;-83
2022/03/04 00:09:16;;;;;;;26.55;16.60;;;1.80;99.90;;;;;;5026123;28;20444;-83
2022/03/04 00:11:42;;;;;;;26.70;16.63;;;1.80;99.90;;;;;;5017277;28;20049;-83
2022/03/04 00:14:08;;;;;;;30.23;17.27;;;1.80;99.90;;;;;;5015011;28;20052;-83
2022/03/04 00:16:34;;;;;;;26.92;16.83;;;1.80;99.90;;;;;;4999257;28;20041;-83
2022/03/04 00:19:07;;;;;;;28.52;17.35;;;1.70;99.90;;;;;;5010173;28;20506;-83
2022/03/04 00:21:44;;;;;;;28.48;17.13;;;1.70;99.90;;;;;;4983774;28;20060;-82
2022/03/04 00:24:11;;;;;;;27.90;15.77;;;1.70;99.90;;;;;;5008527;28;20049;-83
2022/03/04 00:26:39;;;;;;;27.60;16.20;;;1.70;99.90;;;;;;4982934;28;20525;-82
2022/03/04 00:29:05;;;;;;;28.48;15.95;;;1.70;99.90;;;;;;5016314;28;20124;-83
2022/03/04 00:31:32;;;;;;;28.23;16.02;;;1.70;99.90;;;;;;5000056;28;20254;-83
2022/03/04 00:33:58;;;;;;;28.42;17.17;;;1.60;99.90;;;;;;5016522;28;20041;-84
2022/03/04 00:36:24;;;;;;;29.50;16.85;;;1.60;99.90;;;;;;5029670;28;20375;-83
2022/03/04 00:38:51;;;;;;;29.60;16.98;;;1.60;99.90;;;;;;5015702;28;20045;-83
2022/03/04 00:41:19;;;;;;;27.40;16.45;;;1.60;99.90;;;;;;4982040;28;20048;-83
2022/03/04 00:43:45;;;;;;;29.70;17.52;;;1.60;99.90;;;;;;5014364;28;20052;-83
2022/03/04 00:46:11;;;;;;;27.65;17.88;;;1.60;99.90;;;;;;5005957;28;20041;-83
2022/03/04 00:48:38;;;;;;;30.42;17.30;;;1.50;99.90;;;;;;5002997;28;20508;-83
2022/03/04 00:51:04;;;;;;;31.50;17.05;;;1.50;99.90;;;;;;5018795;28;20133;-83
2022/03/04 00:53:30;;;;;;;30.33;17.70;;;1.50;99.90;;;;;;5001889;28;20037;-83
2022/03/04 00:55:56;;;;;;;31.40;17.33;;;1.50;99.90;;;;;;5014384;28;20103;-83
2022/03/04 00:58:22;;;;;;;31.48;18.23;;;1.50;99.90;;;;;;4998193;28;20052;-83
2022/03/04 01:00:48;;;;;;;31.67;17.73;;;1.40;99.90;;;;;;4981824;28;20405;-83
2022/03/04 01:03:14;;;;;;;30.00;18.77;;;1.40;99.90;;;;;;4982065;28;20052;-82
2022/03/04 01:05:40;;;;;;;30.08;18.00;;;1.30;99.90;;;;;;5007566;28;20045;-83
2022/03/04 01:08:05;;;;;;;29.02;17.10;;;1.40;99.90;;;;;;5016640;28;20482;-83
2022/03/04 01:10:31;;;;;;;32.63;17.77;;;1.30;99.90;;;;;;5015115;28;20042;-83
2022/03/04 01:12:57;;;;;;;29.13;17.50;;;1.30;99.90;;;;;;4983732;28;20045;-83
2022/03/04 01:15:23;;;;;;;30.92;17.88;;;1.30;99.90;;;;;;5019053;28;20080;-83
2022/03/04 01:17:48;;;;;;;31.90;18.63;;;1.30;99.90;;;;;;5006439;28;20041;-82
2022/03/04 01:20:14;;;;;;;26.85;16.98;;;1.30;99.90;;;;;;5002493;28;20069;-82
2022/03/04 01:22:40;;;;;;;34.42;19.48;;;1.30;99.90;;;;;;4985858;28;20050;-82
2022/03/04 01:25:07;;;;;;;31.50;17.83;;;1.30;99.90;;;;;;5002407;28;20068;-83
2022/03/04 01:27:33;;;;;;;35.30;18.85;;;1.30;99.90;;;;;;5002748;28;20052;-82
2022/03/04 01:29:58;;;;;;;33.08;18.75;;;1.20;99.90;;;;;;5002676;28;20037;-83
2022/03/04 01:32:24;;;;;;;30.02;18.15;;;1.20;99.90;;;;;;5018926;28;20134;-83
2022/03/04 01:34:50;;;;;;;30.70;17.10;;;1.20;99.90;;;;;;5002259;28;20481;-83
2022/03/04 01:37:16;;;;;;;31.45;17.77;;;1.20;99.90;;;;;;5018952;28;20065;-83
2022/03/04 01:39:41;;;;;;;33.72;18.17;;;1.20;99.90;;;;;;5007903;28;20052;-83
2022/03/04 01:42:07;;;;;;;35.70;18.85;;;1.10;99.90;;;;;;4991796;28;20038;-83
2022/03/04 01:44:33;;;;;;;29.42;18.20;;;1.20;99.90;;;;;;5007451;28;20049;-83
2022/03/04 01:46:59;;;;;;;36.42;19.65;;;1.10;99.90;;;;;;5021302;28;20053;-83
2022/03/04 01:49:25;;;;;;;36.38;19.17;;;1.10;99.90;;;;;;5001522;28;20092;-83
2022/03/04 01:51:50;;;;;;;32.47;18.90;;;1.10;99.90;;;;;;5002958;28;20049;-83
2022/03/04 01:54:16;;;;;;;31.70;18.15;;;1.10;99.90;;;;;;4987383;28;20041;-83
2022/03/04 01:56:42;;;;;;;33.05;18.33;;;1.10;99.90;;;;;;5006924;28;20045;-83
2022/03/04 01:59:07;;;;;;;35.90;18.75;;;1.10;99.90;;;;;;5013260;28;20041;-83
2022/03/04 02:01:34;;;;;;;32.05;18.10;;;1.00;99.90;;;;;;4986148;28;20068;-84
2022/03/04 02:04:00;;;;;;;33.75;19.05;;;1.00;99.90;;;;;;5002384;28;20050;-83
2022/03/04 02:06:26;;;;;;;34.83;19.35;;;1.00;99.90;;;;;;4989984;28;20041;-83
2022/03/04 02:08:52;;;;;;;32.00;18.38;;;1.00;99.90;;;;;;5018827;28;20053;-83
2022/03/04 02:11:17;;;;;;;32.00;18.35;;;0.90;99.90;;;;;;5003538;28;20041;-83
2022/03/04 02:13:43;;;;;;;32.65;18.42;;;0.90;99.90;;;;;;5022572;28;20091;-83
2022/03/04 02:16:36;;;;;;;34.45;18.40;;;0.90;99.90;;;;;;5017738;28;20092;-83
2022/03/04 02:19:03;;;;;;;33.92;18.65;;;0.80;99.90;;;;;;5010465;28;20107;-83
2022/03/04 02:21:31;;;;;;;33.53;18.73;;;0.80;99.90;;;;;;5007507;28;20441;-83
2022/03/04 02:23:57;;;;;;;32.60;18.85;;;0.80;99.90;;;;;;5026257;28;20045;-83
2022/03/04 02:26:23;;;;;;;35.95;19.52;;;0.70;99.90;;;;;;5000973;28;20551;-84
2022/03/04 02:28:50;;;;;;;34.45;18.52;;;0.70;99.90;;;;;;4985173;28;20460;-82
2022/03/04 02:31:18;;;;;;;39.65;20.63;;;0.70;99.90;;;;;;5018547;28;20048;-83
2022/03/04 02:33:45;;;;;;;36.33;19.92;;;0.70;99.90;;;;;;5017150;28;20075;-83
2022/03/04 02:36:11;;;;;;;36.80;20.15;;;0.70;99.90;;;;;;5000902;28;20041;-83
2022/03/04 02:38:37;;;;;;;33.85;19.23;;;0.60;99.90;;;;;;5022231;28;20037;-82
2022/03/04 02:41:03;;;;;;;32.90;18.58;;;0.60;99.90;;;;;;5010730;28;20136;-83
2022/03/04 02:43:29;;;;;;;32.67;18.10;;;0.60;99.90;;;;;;5003238;28;20073;-83
2022/03/04 02:45:55;;;;;;;34.30;18.55;;;0.60;99.90;;;;;;5011521;28;20549;-83
2022/03/04 02:48:20;;;;;;;37.15;19.75;;;0.60;99.90;;;;;;4983059;28;20132;-83
2022/03/04 02:50:46;;;;;;;37.55;19.30;;;0.60;99.90;;;;;;4999553;28;20038;-82
2022/03/04 02:53:12;;;;;;;36.95;19.48;;;0.60;99.90;;;;;;4983177;28;20041;-83
2022/03/04 02:55:38;;;;;;;34.88;19.73;;;0.60;99.90;;;;;;4983089;28;20457;-83
2022/03/04 02:58:03;;;;;;;37.95;20.55;;;0.60;99.90;;;;;;4999788;28;20056;-83
2022/03/04 03:00:30;;;;;;;37.78;20.80;;;0.60;99.90;;;;;;5015777;28;20049;-83
2022/03/04 03:02:55;;;;;;;32.83;18.45;;;0.60;99.90;;;;;;5001359;28;20041;-83
2022/03/04 03:05:21;;;;;;;38.90;21.08;;;0.60;99.90;;;;;;4999952;28;20041;-83
2022/03/04 03:07:47;;;;;;;38.63;19.95;;;0.60;99.90;;;;;;4982772;28;20099;-83
2022/03/04 03:10:13;;;;;;;37.97;20.23;;;0.60;99.90;;;;;;4984936;28;20486;-83
2022/03/04 03:12:40;;;;;;;38.13;19.35;;;0.70;99.90;;;;;;5015665;28;20551;-84
2022/03/04 03:15:07;;;;;;;40.40;19.83;;;0.60;99.90;;;;;;5016822;28;20103;-82
2022/03/04 03:17:33;;;;;;;34.08;19.17;;;0.60;99.90;;;;;;5015924;28;20045;-83
2022/03/04 03:19:59;;;;;;;35.05;20.27;;;0.60;99.90;;;;;;5000093;28;20541;-82
2022/03/04 03:22:24;;;;;;;38.38;20.15;;;0.70;99.90;;;;;;4992728;28;20397;-83
2022/03/04 03:24:50;;;;;;;32.72;19.23;;;0.60;99.90;;;;;;5000161;28;20042;-82
2022/03/04 03:27:16;;;;;;;42.03;21.45;;;0.60;99.90;;;;;;4983142;28;20049;-83
2022/03/04 03:29:42;;;;;;;39.05;19.60;;;0.50;99.90;;;;;;4999631;28;20553;-83
2022/03/04 03:32:10;;;;;;;39.50;19.98;;;0.50;99.90;;;;;;5016118;28;20045;-82
2022/03/04 03:34:36;;;;;;;37.35;20.13;;;0.50;99.90;;;;;;5002459;28;20069;-83
2022/03/04 03:37:02;;;;;;;38.80;20.73;;;0.50;99.90;;;;;;4999172;28;20062;-82
2022/03/04 03:39:28;;;;;;;38.75;19.67;;;0.50;99.90;;;;;;4984959;28;20060;-83
2022/03/04 03:41:54;;;;;;;36.13;19.95;;;0.50;99.90;;;;;;4999599;28;20506;-82
2022/03/04 03:44:20;;;;;;;38.75;20.50;;;0.40;99.90;;;;;;5016417;28;20052;-83
2022/03/04 03:46:45;;;;;;;37.70;19.85;;;0.50;99.90;;;;;;5015475;28;20062;-83
2022/03/04 03:49:11;;;;;;;39.83;19.92;;;0.50;99.90;;;;;;5003284;28;20490;-83
2022/03/04 03:51:37;;;;;;;39.55;20.65;;;0.40;99.90;;;;;;4999069;28;20516;-82
2022/03/04 03:54:03;;;;;;;38.95;20.55;;;0.40;99.90;;;;;;4998973;28;20127;-83
2022/03/04 03:56:29;;;;;;;37.75;20.08;;;0.40;99.90;;;;;;5015857;28;20133;-82
2022/03/04 03:58:55;;;;;;;36.75;20.60;;;0.40;99.90;;;;;;5015950;28;20128;-83
2022/03/04 04:01:21;;;;;;;36.40;18.88;;;0.40;99.90;;;;;;5015651;28;20067;-83
2022/03/04 04:03:47;;;;;;;40.35;21.02;;;0.40;99.90;;;;;;4998308;28;20038;-83
2022/03/04 04:06:13;;;;;;;36.28;19.17;;;0.30;99.90;;;;;;4999958;28;20095;-82
2022/03/04 04:08:38;;;;;;;40.55;21.00;;;0.30;99.90;;;;;;4999554;28;20076;-82
2022/03/04 04:11:04;;;;;;;37.63;19.52;;;0.30;99.90;;;;;;5015721;28;20498;-82
2022/03/04 04:13:30;;;;;;;39.50;21.05;;;0.30;99.90;;;;;;4999692;28;20045;-82
2022/03/04 04:15:55;;;;;;;37.70;19.95;;;0.30;99.90;;;;;;4982894;28;20071;-82
2022/03/04 04:18:21;;;;;;;39.22;20.67;;;0.20;99.90;;;;;;4982960;28;20120;-82
2022/03/04 04:20:47;;;;;;;34.78;18.77;;;0.20;99.90;;;;;;4982873;28;20397;-82
2022/03/04 04:23:12;;;;;;;36.28;19.90;;;0.20;99.90;;;;;;4998761;28;20082;-82
2022/03/04 04:25:38;;;;;;;36.53;20.05;;;0.10;99.90;;;;;;4998764;28;20045;-82
2022/03/04 04:28:04;;;;;;;37.67;19.63;;;0.20;99.90;;;;;;4999009;28;20057;-82
2022/03/04 04:30:30;;;;;;;37.03;19.55;;;0.00;99.90;;;;;;4983037;28;20126;-81
2022/03/04 04:32:57;;;;;;;41.58;20.67;;;0.00;99.90;;;;;;4998533;28;20128;-82
2022/03/04 04:35:23;;;;;;;37.17;20.15;;;0.00;99.90;;;;;;5015145;28;20056;-82
2022/03/04 04:37:48;;;;;;;39.22;19.65;;;0.00;99.90;;;;;;5014790;28;20038;-82
2022/03/04 04:40:14;;;;;;;36.45;19.48;;;0.00;99.90;;;;;;4998881;28;20585;-82
2022/03/04 04:42:40;;;;;;;44.20;21.30;;;-0.10;99.90;;;;;;5015546;28;20124;-83
2022/03/04 04:45:07;;;;;;;41.53;20.85;;;-0.10;99.90;;;;;;5015274;28;20060;-82
2022/03/04 04:47:34;;;;;;;42.60;20.80;;;-0.10;99.90;;;;;;5013681;28;20053;-85
2022/03/04 04:50:00;;;;;;;38.78;20.58;;;-0.10;99.90;;;;;;4999436;28;20179;-82
2022/03/04 04:52:26;;;;;;;41.53;20.88;;;-0.10;99.90;;;;;;4983152;28;20371;-82
2022/03/04 04:54:51;;;;;;;38.25;20.67;;;-0.10;99.90;;;;;;4998832;28;20056;-82
2022/03/04 04:57:17;;;;;;;40.13;20.35;;;-0.10;99.90;;;;;;4982843;28;20046;-82
2022/03/04 04:59:43;;;;;;;37.13;19.90;;;-0.10;99.90;;;;;;4998757;28;20057;-82
2022/03/04 05:02:09;;;;;;;41.53;21.42;;;-0.20;99.90;;;;;;4982037;28;20038;-82
2022/03/04 05:04:35;;;;;;;37.58;20.33;;;-0.10;99.90;;;;;;4999360;28;20050;-84
2022/03/04 05:07:01;;;;;;;38.22;21.13;;;-0.10;99.90;;;;;;4998707;28;20154;-82
2022/03/04 05:09:27;;;;;;;38.97;19.83;;;-0.20;99.90;;;;;;4998888;28;20389;-82
2022/03/04 05:11:53;;;;;;;41.60;20.75;;;-0.10;99.90;;;;;;5015710;28;20120;-82
2022/03/04 05:14:19;;;;;;;35.70;19.75;;;-0.10;99.90;;;;;;5015205;28;20044;-82
2022/03/04 05:16:44;;;;;;;42.97;21.35;;;-0.20;99.90;;;;;;5015286;28;20046;-82
2022/03/04 05:19:10;;;;;;;36.80;20.65;;;-0.20;99.90;;;;;;4998576;28;20422;-83
2022/03/04 05:21:36;;;;;;;40.10;20.30;;;-0.20;99.90;;;;;;4982718;28;20046;-82
2022/03/04 05:24:02;;;;;;;42.90;20.92;;;-0.20;99.90;;;;;;5014689;28;20041;-82
2022/03/04 05:26:32;;;;;;;38.08;20.23;;;-0.20;99.90;;;;;;5014775;28;20046;-82
2022/03/04 05:29:00;;;;;;;40.13;20.33;;;-0.20;99.90;;;;;;4997228;28;20494;-82
2022/03/04 05:31:27;;;;;;;39.63;19.92;;;-0.20;99.90;;;;;;5019610;28;20072;-82
2022/03/04 05:33:53;;;;;;;41.13;21.60;;;-0.20;99.90;;;;;;4998411;28;20054;-82
2022/03/04 05:36:19;;;;;;;37.08;19.50;;;-0.30;99.90;;;;;;4981910;28;20049;-82
2022/03/04 05:38:46;;;;;;;40.33;20.70;;;-0.30;99.90;;;;;;5013724;28;20053;-82
2022/03/04 05:41:12;;;;;;;39.55;20.63;;;-0.30;99.90;;;;;;4998727;28;20041;-82
2022/03/04 05:43:38;;;;;;;40.10;20.70;;;-0.30;99.90;;;;;;4998410;28;20068;-83
2022/03/04 05:46:04;;;;;;;43.53;20.15;;;-0.30;99.90;;;;;;4997583;28;20053;-82
2022/03/04 05:48:30;;;;;;;39.53;20.60;;;-0.30;99.90;;;;;;5014459;28;20045;-83
2022/03/04 05:50:56;;;;;;;37.53;20.35;;;-0.40;99.90;;;;;;4965107;28;20037;-82
2022/03/04 05:53:22;;;;;;;41.22;20.67;;;-0.30;99.90;;;;;;5015014;28;20033;-83
2022/03/04 05:55:48;;;;;;;42.25;20.50;;;-0.40;99.90;;;;;;4998154;28;20049;-82
2022/03/04 05:58:14;;;;;;;40.53;19.63;;;-0.50;99.90;;;;;;5000201;28;20057;-82
2022/03/04 06:00:39;;;;;;;41.70;21.00;;;-0.40;99.90;;;;;;5016077;28;20478;-83
2022/03/04 06:03:06;;;;;;;37.08;19.77;;;-0.40;99.90;;;;;;5017235;28;20393;-82
2022/03/04 06:05:32;;;;;;;42.60;21.42;;;-0.40;99.90;;;;;;5001736;28;20498;-82
2022/03/04 06:07:57;;;;;;;43.75;21.35;;;-0.50;99.90;;;;;;5017578;28;20041;-82
2022/03/04 06:10:23;;;;;;;41.28;20.83;;;-0.50;99.90;;;;;;5001643;28;20045;-82
2022/03/04 06:12:49;;;;;;;40.35;20.95;;;-0.60;99.90;;;;;;4984413;28;20094;-82
2022/03/04 06:15:14;;;;;;;42.28;21.08;;;-0.50;99.90;;;;;;5027569;28;20512;-82
2022/03/04 06:17:46;;;;;;;44.13;22.10;;;-0.40;99.90;;;;;;5000613;28;20099;-81
2022/03/04 06:20:12;;;;;;;43.03;21.05;;;-0.50;99.90;;;;;;5017789;28;20041;-82
2022/03/04 06:22:37;;;;;;;38.30;21.60;;;-0.60;99.90;;;;;;5017796;28;20047;-82
2022/03/04 06:25:04;;;;;;;46.50;21.98;;;-0.60;99.90;;;;;;5000236;28;20064;-81
2022/03/04 06:27:30;;;;;;;43.00;21.60;;;-0.60;99.90;;;;;;5017633;28;20049;-81
2022/03/04 06:29:56;;;;;;;39.95;21.65;;;-0.60;99.90;;;;;;5001216;28;20049;-82
2022/03/04 06:32:22;;;;;;;45.13;22.92;;;-0.70;99.90;;;;;;5001243;28;20081;-82
2022/03/04 06:34:47;;;;;;;43.33;22.05;;;-0.70;99.90;;;;;;4994321;28;20042;-82
2022/03/04 06:37:13;;;;;;;43.20;22.45;;;-0.70;99.90;;;;;;5001069;28;20111;-82
2022/03/04 06:39:39;;;;;;;47.55;21.98;;;-0.70;99.90;;;;;;5000703;28;20037;-83
2022/03/04 06:42:05;;;;;;;52.38;23.52;;;-0.80;99.90;;;;;;4984518;28;20053;-82
2022/03/04 06:44:31;;;;;;;50.40;23.83;;;-0.70;99.90;;;;;;5001323;28;20500;-78
2022/03/04 06:46:56;;;;;;;54.42;24.95;;;-0.70;99.90;;;;;;5016902;28;20053;-79
2022/03/04 06:49:22;;;;;;;53.47;22.52;;;-0.70;99.90;;;;;;4984778;28;20049;-84
2022/03/04 06:51:48;;;;;;;48.35;23.58;;;-0.70;99.90;;;;;;5016807;28;20107;-80
2022/03/04 06:54:13;;;;;;;50.25;24.23;;;-0.70;99.90;;;;;;5017546;28;20156;-83
2022/03/04 06:56:39;;;;;;;53.13;23.58;;;-0.70;99.90;;;;;;5001079;28;20041;-83
2022/03/04 06:59:05;;;;;;;62.40;24.15;;;-0.70;99.90;;;;;;4984167;28;20049;-82
2022/03/04 07:01:31;;;;;;;69.00;23.70;;;-0.70;99.90;;;;;;4984547;28;20121;-83
2022/03/04 07:03:57;;;;;;;56.40;22.33;;;-0.60;99.90;;;;;;4983160;28;20045;-82
2022/03/04 07:06:22;;;;;;;55.05;22.63;;;-0.60;99.90;;;;;;4984425;28;20444;-83
2022/03/04 07:08:48;;;;;;;50.65;23.60;;;-0.60;99.90;;;;;;5015578;28;20386;-83
2022/03/04 07:11:14;;;;;;;52.72;24.33;;;-0.60;99.90;;;;;;4998526;28;20133;-85
2022/03/04 07:13:40;;;;;;;49.72;23.08;;;-0.50;99.90;;;;;;5009941;28;20132;-82
2022/03/04 07:16:06;;;;;;;51.85;22.55;;;-0.50;99.90;;;;;;5014457;28;20080;-83
2022/03/04 07:18:31;;;;;;;52.47;23.55;;;-0.50;99.90;;;;;;5011149;28;20037;-83
2022/03/04 07:21:01;;;;;;;54.60;24.63;;;-0.40;99.90;;;;;;4998985;28;20486;-83
2022/03/04 07:23:26;;;;;;;48.13;23.70;;;-0.40;99.90;;;;;;5012122;28;20088;-83
2022/03/04 07:25:52;;;;;;;52.17;24.15;;;-0.40;99.90;;;;;;5033304;28;20092;-83
2022/03/04 07:28:18;;;;;;;56.55;23.08;;;-0.40;99.90;;;;;;4984650;28;20053;-80
2022/03/04 07:30:44;;;;;;;108.90;26.48;;;-0.30;99.90;;;;;;5000371;28;20098;-80
2022/03/04 07:33:10;;;;;;;60.83;24.10;;;-0.30;99.90;;;;;;5014387;28;20046;-81
2022/03/04 07:35:39;;;;;;;55.70;24.55;;;-0.30;99.90;;;;;;5014905;28;20474;-82
2022/03/04 07:38:05;;;;;;;58.25;23.83;;;-0.20;99.90;;;;;;5015389;28;20486;-82
2022/03/04 07:40:31;;;;;;;50.97;24.02;;;-0.20;99.90;;;;;;5000674;28;20060;-80
2022/03/04 07:42:58;;;;;;;52.42;23.20;;;-0.20;99.90;;;;;;5005857;28;20057;-80
2022/03/04 07:45:24;;;;;;;94.95;24.92;;;-0.10;99.90;;;;;;5016237;28;20088;-79
2022/03/04 07:47:50;;;;;;;71.18;25.00;;;-0.10;99.90;;;;;;5013848;28;20054;-81
2022/03/04 07:50:16;;;;;;;94.78;25.98;;;-0.10;99.90;;;;;;5000905;28;20045;-81
2022/03/04 07:52:43;;;;;;;81.00;23.83;;;-0.10;99.90;;;;;;5001899;28;20107;-80
2022/03/04 07:55:11;;;;;;;100.03;24.38;;;-0.10;99.90;;;;;;5000732;28;20425;-81
2022/03/04 07:57:37;;;;;;;71.53;24.52;;;-0.20;99.90;;;;;;5027666;28;20037;-80
2022/03/04 08:00:08;;;;;;;57.10;24.08;;;-0.10;99.90;;;;;;4996707;28;20050;-83
2022/03/04 08:02:34;;;;;;;81.70;23.60;;;-0.10;99.90;;;;;;5013787;28;20128;-80
2022/03/04 08:05:00;;;;;;;60.08;24.52;;;-0.10;99.90;;;;;;5015871;28;20125;-81
2022/03/04 08:07:26;;;;;;;68.75;25.10;;;0.00;99.90;;;;;;5010670;28;20045;-79
2022/03/04 08:09:52;;;;;;;57.63;22.90;;;0.00;99.90;;;;;;5016014;28;20056;-79
2022/03/04 08:12:17;;;;;;;87.47;23.50;;;0.00;99.90;;;;;;5015711;28;20080;-79
2022/03/04 08:14:43;;;;;;;100.55;23.90;;;0.10;99.90;;;;;;5015804;28;20054;-80
2022/03/04 08:17:09;;;;;;;67.45;23.40;;;0.10;99.90;;;;;;4999533;28;20500;-79
2022/03/04 08:19:35;;;;;;;154.93;27.27;;;0.00;99.90;;;;;;4983156;28;20049;-80
2022/03/04 08:22:02;;;;;;;99.68;25.95;;;0.20;99.90;;;;;;4998942;28;20057;-80
2022/03/04 08:24:28;;;;;;;53.90;22.83;;;0.20;99.90;;;;;;4996074;28;20046;-82
2022/03/04 08:26:53;;;;;;;66.07;25.05;;;0.20;99.90;;;;;;4999767;28;20049;-83
2022/03/04 08:29:19;;;;;;;87.88;24.67;;;0.30;99.90;;;;;;5014256;28;20111;-78
2022/03/04 08:31:45;;;;;;;78.88;26.05;;;0.30;99.90;;;;;;4999542;28;20037;-90
2022/03/04 08:34:10;;;;;;;58.13;25.08;;;0.30;99.90;;;;;;4983684;28;20072;-82
2022/03/04 08:36:36;;;;;;;55.20;24.65;;;0.40;99.90;;;;;;5014592;28;20387;-81
2022/03/04 08:39:05;;;;;;;51.63;26.65;;;0.40;99.90;;;;;;4982649;28;20123;-82
2022/03/04 08:41:32;;;;;;;41.67;22.83;;;0.50;99.90;;;;;;4999542;28;20057;-80
2022/03/04 08:43:58;;;;;;;58.42;25.10;;;0.60;99.90;;;;;;5015087;28;20115;-82
2022/03/04 08:46:25;;;;;;;52.75;27.27;;;0.60;99.90;;;;;;5013712;28;20437;-81
2022/03/04 08:48:50;;;;;;;45.55;24.05;;;0.70;99.90;;;;;;4998873;28;20060;-82
2022/03/04 08:51:16;;;;;;;46.47;25.63;;;0.70;99.90;;;;;;4997155;28;20462;-83
2022/03/04 08:53:42;;;;;;;83.45;26.38;;;0.80;99.90;;;;;;4995162;28;20053;-79
2022/03/04 08:56:08;;;;;;;47.22;24.48;;;0.80;99.90;;;;;;4996362;28;20045;-79
2022/03/04 08:58:35;;;;;;;59.75;25.88;;;0.80;99.90;;;;;;4982509;28;20045;-76
2022/03/04 09:01:01;;;;;;;46.17;25.48;;;0.90;99.90;;;;;;4998627;28;20041;-80
2022/03/04 09:03:28;;;;;;;48.75;26.90;;;0.90;99.90;;;;;;5015348;28;20056;-77
2022/03/04 09:05:53;;;;;;;46.38;25.17;;;0.80;99.90;;;;;;5015412;28;20049;-78
2022/03/04 09:08:19;;;;;;;50.53;27.50;;;0.80;99.90;;;;;;5015206;28;20056;-77
2022/03/04 09:10:45;;;;;;;49.55;25.83;;;0.90;99.90;;;;;;4999163;28;20448;-78
2022/03/04 09:13:11;;;;;;;44.22;25.90;;;1.00;99.90;;;;;;4982624;28;20052;-77
2022/03/04 09:15:37;;;;;;;46.67;26.30;;;1.00;99.90;;;;;;5015054;28;20045;-79
2022/03/04 09:18:03;;;;;;;49.33;27.58;;;1.10;99.90;;;;;;5014762;28;20137;-78
2022/03/04 09:20:28;;;;;;;44.28;25.08;;;1.10;99.90;;;;;;5029220;28;20046;-78
2022/03/04 09:22:55;;;;;;;42.00;25.20;;;1.10;99.90;;;;;;5014202;28;20107;-77
2022/03/04 09:25:22;;;;;;;40.58;24.30;;;1.20;99.90;;;;;;4997552;28;20046;-80
2022/03/04 09:27:50;;;;;;;47.95;26.88;;;1.20;99.90;;;;;;4998395;28;20110;-80
2022/03/04 09:30:16;;;;;;;43.00;25.55;;;1.30;99.90;;;;;;4998842;28;20482;-81
2022/03/04 09:32:42;;;;;;;45.20;25.17;;;1.30;99.90;;;;;;5016197;28;20049;-77
2022/03/04 09:35:08;;;;;;;51.22;28.13;;;1.30;99.90;;;;;;5002849;28;20042;-79
2022/03/04 09:37:34;;;;;;;47.78;27.00;;;1.50;99.90;;;;;;5018091;28;20037;-79
2022/03/04 09:40:02;;;;;;;39.08;24.42;;;1.50;99.90;;;;;;5018802;28;20045;-85
2022/03/04 09:42:28;;;;;;;;;;;1.50;99.90;;;;;;5019431;28;20053;-79
2022/03/04 09:44:53;;;;;;;;;;;1.50;99.90;;;;;;5019020;28;20016;-79
2022/03/04 09:47:20;;;;;;;;;;;1.60;99.90;;;;;;5018525;28;20370;-80
2022/03/04 09:49:46;;;;;;;;;;;1.70;99.90;;;;;;5019163;28;20020;-80
2022/03/04 09:52:12;;;;;;;;;;;1.80;99.90;;;;;;5018611;28;19921;-78
2022/03/04 09:54:38;;;;;;;;;;;1.70;99.90;;;;;;5010253;28;19928;-77
2022/03/04 09:57:03;;;;;;;;;;;1.80;99.90;;;;;;5028248;28;19975;-81
2022/03/04 09:59:29;;;;;;;;;;;1.70;99.90;;;;;;5009546;28;19925;-82
2022/03/04 10:01:56;;;;;;;;;;;1.90;99.90;;;;;;5007401;28;19922;-81
2022/03/04 10:04:25;;;;;;;;;;;2.10;99.90;;;;;;5011255;28;19921;-80
2022/03/04 10:06:50;;;;;;;;;;;2.00;99.90;;;;;;5018906;28;20070;-82
2022/03/04 10:09:35;;;;;;;;;;;2.10;99.90;;;;;;5001670;28;20389;-81
2022/03/04 10:12:01;;;;;;;;;;;2.30;99.90;;;;;;5017448;28;20308;-81
2022/03/04 10:14:26;;;;;;;;;;;2.40;99.90;;;;;;5017968;28;19921;-81
2022/03/04 10:16:55;;;;;;;;;;;2.60;99.90;;;;;;5015904;28;19925;-81
2022/03/04 10:19:23;;;;;;;;;;;2.70;99.90;;;;;;5001998;28;19921;-79
2022/03/04 10:21:51;;;;;;;;;;;2.70;99.90;;;;;;5002361;28;20757;-80
2022/03/04 10:24:18;;;;;;;;;;;2.80;99.90;;;;;;5018712;28;19921;-81
2022/03/04 10:26:43;;;;;;;;;;;2.80;99.90;;;;;;5018814;28;19925;-79
2022/03/04 10:29:35;;;;;;;;;;;3.00;99.90;;;;;;5001858;28;20011;-79
2022/03/04 10:32:13;;;;;;;;;;;3.00;99.90;;;;;;5015304;28;20272;-82
2022/03/04 10:34:55;;;;;;;;;;;3.20;99.90;;;;;;4995279;28;19933;-80
2022/03/04 10:37:22;;;;;;;;;;;3.20;99.90;;;;;;5010005;28;19925;-79
2022/03/04 10:39:58;;;;;;;;;;;3.50;99.90;;;;;;5026597;28;19925;-79
2022/03/04 10:42:37;;;;;;;;;;;3.60;99.90;;;;;;5015229;28;19929;-79
2022/03/04 10:45:07;;;;;;;;;;;3.80;99.90;;;;;;4998100;28;19987;-76
2022/03/04 10:47:44;;;;;;;;;;;3.80;99.90;;;;;;5011513;28;19928;-78
2022/03/04 10:50:10;;;;;;;;;;;4.00;99.90;;;;;;5017093;28;20366;-78
2022/03/04 10:52:49;;;;;;;;;;;4.00;99.90;;;;;;5015805;28;19925;-79
2022/03/04 10:55:24;;;;;;;;;;;4.10;99.90;;;;;;4999963;28;19926;-77
2022/03/04 10:57:50;;;;;;;;;;;4.20;99.90;;;;;;5007881;28;20404;-79
2022/03/04 11:00:22;;;;;;;;;;;4.30;99.90;;;;;;5001729;28;19921;-77
2022/03/04 11:02:48;;;;;;;;;;;4.50;99.90;;;;;;4998111;28;19921;-78
2022/03/04 11:05:14;;;;;;;;;;;4.60;99.90;;;;;;4997490;28;19921;-77
2022/03/04 11:07:42;;;;;;;;;;;4.70;99.90;;;;;;5000720;28;19971;-78
2022/03/04 11:10:08;;;;;;;;;;;4.90;99.90;;;;;;5014526;28;19921;-78
2022/03/04 11:12:34;;;;;;;;;;;5.10;99.90;;;;;;5017104;28;19943;-78
2022/03/04 11:15:00;;;;;;;;;;;5.20;99.90;;;;;;5017752;28;20362;-79
2022/03/04 11:17:26;;;;;;;;;;;5.30;99.90;;;;;;4998743;28;19925;-79
2022/03/04 11:19:52;;;;;;;;;;;5.50;99.90;;;;;;5013706;28;19961;-80
2022/03/04 11:22:18;;;;;;;;;;;5.60;99.90;;;;;;4997665;28;19956;-78
2022/03/04 11:24:43;;;;;;;;;;;5.70;99.90;;;;;;5014008;28;19967;-79
2022/03/04 11:27:10;;;;;;;;;;;5.90;99.90;;;;;;5017035;28;19976;-81
2022/03/04 11:29:36;;;;;;;;;;;6.20;99.90;;;;;;4999931;28;19921;-77
2022/03/04 11:32:03;;;;;;;;;;;6.30;99.90;;;;;;5017560;28;19928;-76
2022/03/04 11:34:39;;;;;;;;;;;6.40;99.90;;;;;;5000275;28;19921;-76
2022/03/04 11:37:13;;;;;;;;;;;6.70;99.90;;;;;;5016484;28;19929;-77
2022/03/04 11:39:59;;;;;;;;;;;7.10;99.90;;;;;;5016483;28;19947;-79
2022/03/04 11:42:27;;;;;;;;;;;7.50;99.90;;;;;;5004019;28;19921;-78
2022/03/04 11:44:54;;;;;;;;;;;7.70;99.90;;;;;;5009127;28;19925;-78
2022/03/04 11:47:19;;;;;;;;;;;8.00;99.90;;;;;;5006687;28;20267;-78
2022/03/04 11:49:48;;;;;;;;;;;8.30;99.90;;;;;;5017377;28;19932;-78
2022/03/04 11:52:19;;;;;;;;;;;8.40;99.90;;;;;;5012506;28;19921;-83
2022/03/04 11:54:51;;;;;;;;;;;8.50;99.90;;;;;;5016397;28;19928;-79
2022/03/04 11:57:18;;;;;;;;;;;8.90;99.90;;;;;;5015194;28;19921;-78
2022/03/04 11:59:51;;;;;;;;;;;9.20;99.90;;;;;;4999048;28;20357;-79
2022/03/04 12:02:20;;;;;;;;;;;9.40;99.90;;;;;;5016102;28;19921;-79
2022/03/04 12:04:45;;;;;;;;;;;9.50;99.90;;;;;;5014673;28;19937;-78
2022/03/04 12:07:13;;;;;;;;;;;9.60;99.90;;;;;;5015853;28;19921;-78
2022/03/04 12:09:49;;;;;;;;;;;9.70;99.90;;;;;;5000430;28;20010;-79
2022/03/04 12:12:21;;;;;;;;;;;10.00;99.90;;;;;;5015790;28;20008;-83
2022/03/04 12:14:47;;;;;;;;;;;10.00;99.90;;;;;;5011680;28;19975;-79
2022/03/04 12:17:13;;;;;;;;;;;10.10;99.90;;;;;;5015719;28;19932;-79
2022/03/04 12:19:39;;;;;;;;;;;10.20;99.90;;;;;;4999359;28;19995;-78
2022/03/04 12:22:06;;;;;;;;;;;10.40;99.90;;;;;;4999916;28;19961;-79
2022/03/04 12:24:33;;;;;;;;;;;10.50;99.90;;;;;;5013835;28;19991;-79
2022/03/04 12:26:58;;;;;;;;;;;10.70;99.90;;;;;;5011579;28;19928;-80
2022/03/04 12:29:50;;;;;;;;;;;10.80;99.90;;;;;;5012127;28;20277;-80
2022/03/04 12:32:16;;;;;;;;;;;11.10;99.90;;;;;;4994930;28;19999;-86
2022/03/04 12:34:52;;;;;;;;;;;11.10;99.90;;;;;;4993696;28;20440;-79
2022/03/04 12:37:18;;;;;;;;;;;11.30;99.90;;;;;;5030584;28;19921;-80
2022/03/04 12:39:50;;;;;;;;;;;11.20;99.90;;;;;;5012507;28;19920;-78
2022/03/04 12:42:17;;;;;;;;;;;11.40;99.90;;;;;;5009636;28;19917;-79
2022/03/04 12:44:44;;;;;;;;;;;11.60;99.90;;;;;;5015097;28;19921;-79
2022/03/04 12:47:10;;;;;;;;;;;11.80;99.90;;;;;;5013984;28;20014;-80
2022/03/04 12:49:39;;;;;;;;;;;11.90;99.90;;;;;;5000854;28;19971;-81
2022/03/04 12:52:04;;;;;;;;;;;11.90;99.90;;;;;;5013962;28;19971;-80
2022/03/04 12:54:31;;;;;;;;;;;11.90;99.90;;;;;;4999360;28;19921;-80
2022/03/04 12:56:57;;;;;;;;;;;11.60;99.90;;;;;;5012087;28;19928;-79